Time;durP1;ratioP1;P1;durP2;ratioP2;P2;SDS_P1;SDS_P2;PMS_P1;PMS_P2;Temp;Humidity;BMP_temperature;BMP_pressure;BME280_temperature;BME280_humidity;BME280_pressure;Samples;Min_cycle;Max_cycle;Signal;HPM_P1;HPM_P2
2021/08/21 00:00:29;;;;;;;8.70;4.90;;;;;;;14.98;95.71;98215.91;5026755;28;20140;-59
2021/08/21 00:02:54;;;;;;;6.25;4.72;;;;;;;15.06;96.44;98223.38;5028819;28;20026;-63
2021/08/21 00:05:19;;;;;;;7.93;5.05;;;;;;;14.74;98.23;98228.59;5029389;28;20024;-63
2021/08/21 00:07:46;;;;;;;12.50;5.60;;;;;;;14.79;97.44;98223.94;5029755;28;20043;-63
2021/08/21 00:10:12;;;;;;;7.88;4.95;;;;;;;14.73;98.61;98227.75;5030949;28;20063;-63
2021/08/21 00:12:38;;;;;;;6.82;5.30;;;;;;;14.60;98.51;98216.22;5030292;28;20513;-63
2021/08/21 00:15:07;;;;;;;7.30;4.90;;;;;;;14.87;98.34;98224.41;5033105;28;20029;-64
2021/08/21 00:17:32;;;;;;;6.97;5.18;;;;;;;14.93;96.13;98217.94;5030605;28;20130;-63
2021/08/21 00:19:57;;;;;;;6.72;4.95;;;;;;;14.70;98.64;98222.66;5029920;28;20057;-63
2021/08/21 00:22:23;;;;;;;7.25;4.47;;;;;;;15.01;97.05;98221.00;5029186;28;20041;-63
2021/08/21 00:24:48;;;;;;;7.70;5.28;;;;;;;14.73;96.65;98222.50;5031137;28;20025;-63
2021/08/21 00:27:13;;;;;;;10.85;5.18;;;;;;;14.60;97.32;98224.94;5031438;28;20036;-64
2021/08/21 00:29:39;;;;;;;11.10;5.50;;;;;;;14.63;97.75;98216.03;5030976;28;20418;-63
2021/08/21 00:32:05;;;;;;;6.82;4.72;;;;;;;14.77;97.05;98217.94;5029715;28;20046;-63
2021/08/21 00:34:30;;;;;;;10.40;4.63;;;;;;;14.60;97.77;98217.06;5030968;28;20024;-62
2021/08/21 00:36:55;;;;;;;8.38;5.07;;;;;;;14.42;98.81;98216.25;5030341;28;20029;-63
2021/08/21 00:39:21;;;;;;;7.78;5.22;;;;;;;14.48;98.10;98214.22;5029733;28;20218;-62
2021/08/21 00:41:46;;;;;;;9.05;4.50;;;;;;;14.52;97.83;98213.13;5029109;28;20386;-59
2021/08/21 00:44:12;;;;;;;6.82;4.45;;;;;;;14.50;97.89;98223.72;5029658;28;20022;-60
2021/08/21 00:47:00;;;;;;;8.15;4.97;;;;;;;14.39;98.49;98213.81;5030953;28;20032;-60
2021/08/21 00:49:29;;;;;;;8.45;5.63;;;;;;;14.23;98.73;98215.53;5029518;28;20104;-60
2021/08/21 00:51:55;;;;;;;9.98;5.40;;;;;;;14.41;97.78;98211.06;5029945;28;20025;-63
2021/08/21 00:54:20;;;;;;;6.75;5.03;;;;;;;14.24;98.87;98214.59;5032411;28;20021;-60
2021/08/21 00:56:46;;;;;;;6.50;4.88;;;;;;;14.32;97.93;98201.94;5029991;28;20044;-61
2021/08/21 00:59:14;;;;;;;6.18;4.40;;;;;;;14.52;98.71;98208.75;5029137;28;20025;-61
2021/08/21 01:01:41;;;;;;;8.70;4.10;;;;;;;14.81;96.35;98201.94;5031152;28;20249;-59
2021/08/21 01:04:06;;;;;;;7.47;4.90;;;;;;;14.38;97.25;98200.75;5030839;28;20017;-61
2021/08/21 01:06:31;;;;;;;8.40;4.95;;;;;;;14.33;97.31;98202.78;5028724;28;20107;-59
2021/08/21 01:08:57;;;;;;;7.97;5.00;;;;;;;14.25;98.81;98206.66;5031490;28;20028;-60
2021/08/21 01:11:22;;;;;;;10.27;5.35;;;;;;;14.44;97.64;98201.25;5032642;28;20032;-59
2021/08/21 01:13:47;;;;;;;7.25;4.88;;;;;;;14.25;98.19;98195.31;5030154;28;20801;-60
2021/08/21 01:16:15;;;;;;;8.77;4.57;;;;;;;14.16;98.29;98201.03;5030277;28;20029;-64
2021/08/21 01:18:41;;;;;;;5.95;3.97;;;;;;;14.49;97.98;98205.44;5029995;28;20132;-60
2021/08/21 01:21:07;;;;;;;6.53;4.45;;;;;;;14.46;97.35;98209.06;5031683;28;20022;-62
2021/08/21 01:23:32;;;;;;;7.85;4.85;;;;;;;14.21;98.06;98199.03;5009623;28;20664;-63
2021/08/21 01:25:58;;;;;;;7.15;4.85;;;;;;;14.19;99.10;98211.34;5014941;28;20111;-62
2021/08/21 01:28:23;;;;;;;5.82;4.35;;;;;;;14.25;98.42;98211.06;5029356;28;20040;-61
2021/08/21 01:30:49;;;;;;;10.05;5.15;;;;;;;14.01;98.51;98214.03;5029321;28;20112;-60
2021/08/21 01:33:14;;;;;;;5.75;3.95;;;;;;;14.30;98.20;98203.78;5029555;28;20650;-62
2021/08/21 01:35:39;;;;;;;5.55;4.05;;;;;;;14.36;95.70;98208.69;5031030;28;20025;-63
2021/08/21 01:38:05;;;;;;;8.65;4.63;;;;;;;13.96;97.14;98205.53;5030500;28;20100;-60
2021/08/21 01:40:30;;;;;;;6.40;4.60;;;;;;;13.93;97.96;98210.09;5029904;28;20506;-61
2021/08/21 01:42:56;;;;;;;6.97;4.57;;;;;;;14.10;96.56;98201.34;5027655;28;20490;-62
2021/08/21 01:45:21;;;;;;;6.88;4.25;;;;;;;14.11;97.24;98203.88;5029170;28;20025;-62
2021/08/21 01:47:47;;;;;;;7.50;4.63;;;;;;;13.85;96.66;98202.63;5029666;28;20562;-61
2021/08/21 01:50:18;;;;;;;6.88;4.68;;;;;;;13.69;98.00;98203.41;5029073;28;20030;-61
2021/08/21 01:52:49;;;;;;;7.13;4.68;;;;;;;13.62;98.18;98211.63;5026628;28;20049;-63
2021/08/21 01:55:15;;;;;;;7.93;4.18;;;;;;;13.60;99.12;98216.97;5029551;28;20020;-62
2021/08/21 01:57:42;;;;;;;5.57;3.92;;;;;;;13.74;97.75;98210.19;5028234;28;20426;-62
2021/08/21 02:00:10;;;;;;;5.38;3.88;;;;;;;13.68;97.71;98209.56;5030411;28;20617;-61
2021/08/21 02:02:35;;;;;;;5.82;4.00;;;;;;;13.52;99.05;98211.25;5029762;28;20117;-60
2021/08/21 02:05:01;;;;;;;5.60;3.95;;;;;;;13.55;98.13;98213.72;5026481;28;20476;-63
2021/08/21 02:07:26;;;;;;;8.15;4.43;;;;;;;13.59;97.69;98207.41;5026900;28;20406;-60
2021/08/21 02:09:52;;;;;;;7.75;4.50;;;;;;;13.42;98.36;98204.78;5026674;28;20391;-60
2021/08/21 02:12:17;;;;;;;8.05;4.78;;;;;;;13.48;98.82;98207.09;5031035;28;20865;-61
2021/08/21 02:14:43;;;;;;;7.32;4.53;;;;;;;13.59;99.08;98203.94;5029760;28;20024;-60
2021/08/21 02:17:09;;;;;;;7.65;4.38;;;;;;;13.53;99.11;98206.84;5029150;28;20033;-60
2021/08/21 02:19:34;;;;;;;10.95;4.75;;;;;;;13.55;99.11;98205.88;5030865;28;20037;-61
2021/08/21 02:22:02;;;;;;;4.63;3.25;;;;;;;14.04;98.24;98206.00;5030469;28;20029;-62
2021/08/21 02:24:27;;;;;;;4.93;3.40;;;;;;;13.98;95.42;98208.91;5028907;28;20026;-61
2021/08/21 02:26:59;;;;;;;6.20;3.90;;;;;;;13.59;99.62;98207.41;5027498;28;20550;-62
2021/08/21 02:29:25;;;;;;;8.43;4.60;;;;;;;13.62;98.35;98207.25;5028246;28;20553;-61
2021/08/21 02:31:50;;;;;;;6.95;4.43;;;;;;;13.35;98.72;98203.38;5029874;28;20295;-63
2021/08/21 02:34:16;;;;;;;7.00;4.43;;;;;;;13.69;99.43;98203.41;5030745;28;20098;-62
2021/08/21 02:36:42;;;;;;;7.00;4.32;;;;;;;13.59;99.82;98204.78;5030526;28;20028;-60
2021/08/21 02:39:09;;;;;;;9.20;4.50;;;;;;;13.50;99.98;98200.00;5029521;28;20061;-62
2021/08/21 02:41:34;;;;;;;6.50;4.47;;;;;;;13.65;98.23;98196.59;5028571;28;20035;-63
2021/08/21 02:44:02;;;;;;;7.55;4.57;;;;;;;13.53;98.63;98197.25;5029763;28;20049;-60
2021/08/21 02:46:27;;;;;;;8.63;3.60;;;;;;;13.79;97.75;98197.69;5028341;28;20037;-62
2021/08/21 02:48:53;;;;;;;10.63;3.70;;;;;;;13.75;97.86;98189.16;5030708;28;20029;-63
2021/08/21 02:51:21;;;;;;;6.93;4.13;;;;;;;13.54;99.75;98193.69;5029771;28;20108;-62
2021/08/21 02:53:46;;;;;;;5.95;4.05;;;;;;;13.93;98.39;98192.59;5028490;28;20025;-63
2021/08/21 02:56:11;;;;;;;7.07;4.75;;;;;;;13.46;98.52;98185.38;5026949;28;20032;-62
2021/08/21 02:58:36;;;;;;;9.30;4.55;;;;;;;13.28;100.00;98187.91;5025801;28;20025;-62
2021/08/21 03:01:02;;;;;;;7.63;4.32;;;;;;;13.61;98.34;98179.34;5029800;28;20175;-63
2021/08/21 03:03:27;;;;;;;6.60;4.68;;;;;;;13.36;99.38;98190.22;5028532;28;20029;-61
2021/08/21 03:05:53;;;;;;;6.80;4.70;;;;;;;13.42;98.33;98183.81;5026126;28;20022;-61
2021/08/21 03:08:18;;;;;;;8.10;4.82;;;;;;;13.51;97.63;98180.75;5027013;28;20025;-61
2021/08/21 03:10:43;;;;;;;7.07;4.07;;;;;;;13.67;96.39;98175.56;5027539;28;20395;-62
2021/08/21 03:13:09;;;;;;;9.93;3.95;;;;;;;13.72;96.58;98180.59;5028035;28;20075;-61
2021/08/21 03:15:34;;;;;;;8.27;3.90;;;;;;;13.81;95.20;98182.75;5028447;28;20065;-60
2021/08/21 03:17:59;;;;;;;6.88;4.28;;;;;;;13.71;95.28;98178.88;5027928;28;20077;-60
2021/08/21 03:20:26;;;;;;;7.15;4.25;;;;;;;13.59;96.79;98186.44;5028095;28;20562;-60
2021/08/21 03:22:52;;;;;;;7.85;4.47;;;;;;;13.43;97.40;98190.75;5028155;28;20136;-62
2021/08/21 03:25:18;;;;;;;5.68;3.60;;;;;;;13.76;95.06;98187.34;5028194;28;20111;-60
2021/08/21 03:27:43;;;;;;;7.68;4.60;;;;;;;13.09;97.27;98185.34;5027334;28;20051;-63
2021/08/21 03:30:09;;;;;;;7.82;4.50;;;;;;;13.14;97.22;98181.66;5026347;28;20084;-60
2021/08/21 03:32:34;;;;;;;5.45;3.92;;;;;;;13.62;95.61;98181.06;5027170;28;20068;-61
2021/08/21 03:35:00;;;;;;;6.90;4.20;;;;;;;13.83;93.29;98179.09;5025983;28;20026;-62
2021/08/21 03:37:26;;;;;;;5.90;3.65;;;;;;;13.83;95.97;98186.13;5028094;28;20111;-60
2021/08/21 03:39:51;;;;;;;6.25;3.83;;;;;;;13.39;98.31;98186.59;5028071;28;20140;-61
2021/08/21 03:42:17;;;;;;;6.25;3.70;;;;;;;13.74;95.85;98181.34;5029049;28;20021;-61
2021/08/21 03:44:42;;;;;;;5.22;3.90;;;;;;;13.96;94.09;98181.94;5029350;28;20105;-61
2021/08/21 03:47:09;;;;;;;4.47;2.92;;;;;;;14.55;94.84;98186.72;5028450;28;20036;-61
2021/08/21 03:49:34;;;;;;;4.15;3.00;;;;;;;15.04;92.36;98184.88;5028695;28;20827;-60
2021/08/21 03:52:00;;;;;;;5.47;3.72;;;;;;;13.81;94.32;98191.44;5027958;28;20675;-60
2021/08/21 03:54:25;;;;;;;7.80;4.00;;;;;;;13.47;94.21;98193.16;5027877;28;20031;-62
2021/08/21 03:56:51;;;;;;;5.68;3.58;;;;;;;13.47;94.99;98193.16;5029267;28;20831;-60
2021/08/21 03:59:16;;;;;;;6.88;3.63;;;;;;;13.60;93.35;98201.25;5026155;28;20079;-61
2021/08/21 04:01:41;;;;;;;5.85;3.75;;;;;;;12.97;95.78;98203.44;5028436;28;20029;-62
2021/08/21 04:04:07;;;;;;;6.30;3.80;;;;;;;13.11;96.67;98206.25;5026674;28;20755;-62
2021/08/21 04:06:32;;;;;;;9.55;4.10;;;;;;;13.48;93.52;98194.00;5025558;28;20471;-62
2021/08/21 04:08:57;;;;;;;8.95;3.97;;;;;;;12.93;96.36;98198.31;5029514;28;20398;-62
2021/08/21 04:11:23;;;;;;;7.72;3.90;;;;;;;13.05;96.41;98196.91;4999238;28;20783;-61
2021/08/21 04:13:48;;;;;;;6.00;3.97;;;;;;;13.03;96.70;98197.88;4998648;28;20037;-62
2021/08/21 04:16:13;;;;;;;8.00;3.83;;;;;;;12.96;97.34;98199.97;5026713;28;20133;-62
2021/08/21 04:18:39;;;;;;;4.32;3.40;;;;;;;13.25;97.25;98195.94;5027377;28;20543;-63
2021/08/21 04:21:04;;;;;;;5.32;3.30;;;;;;;13.51;95.40;98204.34;5029353;28;20409;-60
2021/08/21 04:23:30;;;;;;;8.32;3.97;;;;;;;13.36;94.78;98200.69;5027052;28;20975;-59
2021/08/21 04:25:59;;;;;;;7.65;4.40;;;;;;;13.13;97.16;98212.25;5029947;28;20483;-63
2021/08/21 04:28:26;;;;;;;7.63;3.95;;;;;;;13.16;97.78;98208.63;5026928;28;20029;-60
2021/08/21 04:30:51;;;;;;;8.23;4.90;;;;;;;13.20;97.50;98207.56;5026742;28;20025;-62
2021/08/21 04:33:17;;;;;;;6.00;4.28;;;;;;;13.41;96.86;98216.19;5027462;28;20037;-62
2021/08/21 04:35:42;;;;;;;5.13;3.80;;;;;;;13.61;97.11;98216.03;5028324;28;20790;-63
2021/08/21 04:38:07;;;;;;;7.30;3.60;;;;;;;13.80;95.97;98220.34;5030635;28;20025;-60
2021/08/21 04:40:33;;;;;;;6.97;4.00;;;;;;;13.80;95.63;98209.88;5031896;28;20032;-60
2021/08/21 04:42:58;;;;;;;4.40;3.15;;;;;;;14.36;93.59;98218.38;5028566;28;20031;-63
2021/08/21 04:45:24;;;;;;;6.85;3.78;;;;;;;14.23;92.67;98219.00;5031055;28;20025;-62
2021/08/21 04:47:49;;;;;;;7.35;3.72;;;;;;;14.03;94.89;98220.03;5029545;28;20116;-62
2021/08/21 04:50:15;;;;;;;8.95;3.83;;;;;;;14.18;94.00;98221.00;5030707;28;20115;-61
2021/08/21 04:52:40;;;;;;;7.13;3.90;;;;;;;14.10;94.69;98228.44;5030915;28;20612;-62
2021/08/21 04:55:06;;;;;;;6.45;3.70;;;;;;;14.46;94.67;98228.28;5032098;28;20052;-60
2021/08/21 04:57:31;;;;;;;5.63;3.30;;;;;;;14.71;91.15;98240.13;5030773;28;20035;-60
2021/08/21 04:59:59;;;;;;;5.15;3.60;;;;;;;14.51;92.58;98232.44;5030421;28;20025;-59
2021/08/21 05:02:24;;;;;;;7.32;4.13;;;;;;;14.61;92.00;98241.53;5029271;28;20028;-60
2021/08/21 05:04:50;;;;;;;6.20;3.60;;;;;;;14.58;92.79;98234.69;5031660;28;20013;-60
2021/08/21 05:07:15;;;;;;;5.38;3.65;;;;;;;14.36;93.76;98234.09;5028199;28;20486;-60
2021/08/21 05:09:40;;;;;;;7.25;3.80;;;;;;;14.71;93.57;98239.28;5030693;28;20456;-60
2021/08/21 05:12:06;;;;;;;6.32;3.00;;;;;;;15.06;89.46;98239.97;5032418;28;20792;-60
2021/08/21 05:14:31;;;;;;;5.60;3.30;;;;;;;15.01;89.44;98239.38;5029369;28;20017;-62
2021/08/21 05:16:57;;;;;;;6.05;3.35;;;;;;;14.85;92.24;98242.00;5027723;28;20032;-61
2021/08/21 05:19:40;;;;;;;6.30;3.33;;;;;;;14.19;95.01;98232.34;5030264;28;20403;-61
2021/08/21 05:24:47;;;;;;;5.15;3.33;;;;;;;15.61;87.01;98231.59;5032000;28;20462;-60
2021/08/21 05:27:12;;;;;;;4.20;2.80;;;;;;;15.69;88.02;98236.41;5030433;28;20033;-61
2021/08/21 05:29:38;;;;;;;5.65;3.10;;;;;;;15.98;85.23;98245.25;5032602;28;20029;-62
2021/08/21 05:32:06;;;;;;;4.63;3.45;;;;;;;15.51;88.66;98246.22;5028262;28;20060;-63
2021/08/21 05:34:32;;;;;;;5.95;3.60;;;;;;;15.14;90.43;98237.75;5031983;28;20431;-60
2021/08/21 05:36:57;;;;;;;6.05;3.78;;;;;;;15.70;87.61;98239.91;5031322;28;20035;-60
2021/08/21 05:39:23;;;;;;;5.45;3.45;;;;;;;15.90;86.66;98242.22;5031794;28;20104;-63
2021/08/21 05:41:49;;;;;;;5.20;3.20;;;;;;;16.16;86.33;98232.78;5031585;28;20087;-60
2021/08/21 05:44:14;;;;;;;7.38;3.53;;;;;;;15.85;86.23;98231.13;5030933;28;20574;-62
2021/08/21 05:46:39;;;;;;;6.13;3.70;;;;;;;15.90;87.86;98231.72;5030685;28;20132;-60
2021/08/21 05:49:05;;;;;;;5.95;3.30;;;;;;;16.21;86.31;98226.38;5029371;28;20025;-61
2021/08/21 05:51:30;;;;;;;5.38;3.30;;;;;;;16.33;86.06;98231.75;5030795;28;20033;-60
2021/08/21 05:53:56;;;;;;;5.50;3.47;;;;;;;16.00;86.83;98238.09;5030278;28;20403;-60
2021/08/21 05:56:22;;;;;;;6.57;3.30;;;;;;;16.22;87.40;98242.09;5029924;28;20034;-60
2021/08/21 05:58:47;;;;;;;4.60;2.90;;;;;;;17.14;84.75;98238.19;5030937;28;20025;-62
2021/08/21 06:01:12;;;;;;;5.47;3.50;;;;;;;16.64;83.47;98244.84;5030527;28;20033;-59
2021/08/21 06:03:38;;;;;;;6.60;3.28;;;;;;;16.38;86.38;98237.59;5030189;28;20029;-58
2021/08/21 06:06:03;;;;;;;5.13;3.33;;;;;;;17.48;82.96;98238.66;5027752;28;20168;-58
2021/08/21 06:08:28;;;;;;;4.40;3.05;;;;;;;17.58;81.98;98242.38;5029691;28;20059;-59
2021/08/21 06:10:55;;;;;;;4.20;2.90;;;;;;;18.29;77.35;98241.16;5030895;28;20363;-60
2021/08/21 06:13:20;;;;;;;4.07;2.85;;;;;;;18.42;78.98;98240.31;5030717;28;20116;-59
2021/08/21 06:15:46;;;;;;;4.85;3.00;;;;;;;18.16;79.61;98239.44;5029426;28;20035;-58
2021/08/21 06:18:11;;;;;;;3.88;3.08;;;;;;;18.18;78.36;98243.69;5030348;28;20063;-62
2021/08/21 06:20:36;;;;;;;4.50;3.03;;;;;;;18.78;76.56;98249.25;5028529;28;20036;-60
2021/08/21 06:23:02;;;;;;;6.70;2.92;;;;;;;18.76;76.05;98249.34;5029113;28;20032;-60
2021/08/21 06:25:27;;;;;;;9.63;3.28;;;;;;;18.10;77.76;98248.63;5026981;28;20090;-61
2021/08/21 06:27:52;;;;;;;4.88;3.05;;;;;;;18.97;74.94;98254.97;5027780;28;20037;-62
2021/08/21 06:30:18;;;;;;;4.53;3.10;;;;;;;19.49;73.82;98255.63;5030670;28;20021;-62
2021/08/21 06:32:43;;;;;;;5.03;2.80;;;;;;;21.35;68.02;98251.06;5027543;28;20040;-61
2021/08/21 06:35:09;;;;;;;4.47;3.10;;;;;;;22.51;63.14;98245.81;5041975;28;20023;-60
2021/08/21 06:37:35;;;;;;;4.75;3.13;;;;;;;23.15;60.69;98243.03;5026685;28;20029;-61
2021/08/21 06:40:00;;;;;;;4.82;2.65;;;;;;;26.67;52.32;98246.69;5028344;28;20024;-61
2021/08/21 06:42:25;;;;;;;4.30;2.70;;;;;;;27.50;49.67;98245.16;5029425;28;20745;-60
2021/08/21 06:44:51;;;;;;;5.40;2.60;;;;;;;29.20;45.10;98238.06;5028521;28;20488;-63
2021/08/21 06:47:17;;;;;;;5.07;2.75;;;;;;;28.32;47.22;98250.53;5027831;28;20144;-63
2021/08/21 06:49:43;;;;;;;4.65;2.60;;;;;;;26.42;50.97;98248.34;5028638;28;20040;-64
2021/08/21 06:52:11;;;;;;;5.63;2.75;;;;;;;24.72;53.87;98250.81;5027947;28;20029;-59
2021/08/21 06:54:36;;;;;;;3.78;2.55;;;;;;;26.15;51.53;98249.31;5026438;28;20122;-62
2021/08/21 06:57:01;;;;;;;4.05;2.60;;;;;;;26.70;49.92;98249.00;5028453;28;20136;-59
2021/08/21 06:59:27;;;;;;;5.22;2.85;;;;;;;23.62;58.56;98251.22;5028752;28;20184;-59
2021/08/21 07:01:52;;;;;;;4.55;2.95;;;;;;;23.02;59.59;98248.56;5030567;28;20036;-61
2021/08/21 07:04:17;;;;;;;5.72;3.00;;;;;;;24.43;56.43;98245.53;5026098;28;20029;-61
2021/08/21 07:06:43;;;;;;;8.10;3.10;;;;;;;24.20;56.39;98245.03;5025384;28;20111;-60
2021/08/21 07:09:08;;;;;;;6.57;3.55;;;;;;;24.10;57.63;98244.22;5026786;28;20029;-61
2021/08/21 07:11:34;;;;;;;4.57;2.95;;;;;;;23.77;59.04;98248.97;5027615;28;20407;-59
2021/08/21 07:13:59;;;;;;;4.57;2.70;;;;;;;22.77;61.96;98245.38;5027749;28;20940;-62
2021/08/21 07:16:27;;;;;;;6.78;3.00;;;;;;;22.28;64.09;98244.31;5029682;28;20395;-60
2021/08/21 07:18:52;;;;;;;8.07;3.17;;;;;;;22.63;62.52;98253.75;5029596;28;20503;-61
2021/08/21 07:21:18;;;;;;;7.45;3.10;;;;;;;22.83;62.02;98255.50;5028718;28;20033;-61
2021/08/21 07:23:44;;;;;;;4.93;3.10;;;;;;;25.49;55.79;98246.03;5027557;28;20849;-60
2021/08/21 07:26:09;;;;;;;6.28;3.15;;;;;;;27.07;51.21;98245.19;5029532;28;20035;-61
2021/08/21 07:28:34;;;;;;;5.40;3.00;;;;;;;28.42;47.93;98251.19;5026021;28;20033;-63
2021/08/21 07:31:00;;;;;;;6.38;2.97;;;;;;;26.86;50.41;98248.25;5022992;28;20025;-62
2021/08/21 07:33:27;;;;;;;4.80;2.90;;;;;;;25.30;53.86;98248.84;5026097;28;20021;-63
2021/08/21 07:35:52;;;;;;;10.18;3.28;;;;;;;25.52;54.45;98253.75;5028189;28;20098;-62
2021/08/21 07:38:17;;;;;;;4.72;3.22;;;;;;;25.48;54.48;98247.03;5024745;28;20040;-61
2021/08/21 07:40:42;;;;;;;5.18;2.97;;;;;;;27.10;50.01;98242.16;5026430;28;20160;-61
2021/08/21 07:43:08;;;;;;;7.05;3.00;;;;;;;27.16;50.05;98250.56;5028468;28;20039;-62
2021/08/21 07:45:33;;;;;;;7.22;3.05;;;;;;;28.30;47.67;98246.38;5028638;28;20021;-60
2021/08/21 07:47:58;;;;;;;3.67;2.88;;;;;;;30.08;44.99;98250.25;5027474;28;20068;-63
2021/08/21 07:50:24;;;;;;;4.72;2.90;;;;;;;30.52;43.60;98257.59;5027862;28;20064;-62
2021/08/21 07:52:49;;;;;;;4.18;2.88;;;;;;;29.78;44.58;98252.84;5028800;28;20136;-62
2021/08/21 07:55:15;;;;;;;4.93;2.90;;;;;;;31.90;40.34;98258.69;5028286;28;20070;-61
2021/08/21 07:57:40;;;;;;;5.68;2.70;;;;;;;31.28;40.33;98260.09;5028190;28;20147;-61
2021/08/21 08:00:06;;;;;;;4.38;2.80;;;;;;;30.35;42.88;98256.09;5028888;28;20048;-61
2021/08/21 08:02:31;;;;;;;4.25;2.70;;;;;;;30.06;43.40;98254.16;5027192;28;20159;-60
2021/08/21 08:04:58;;;;;;;4.03;2.88;;;;;;;27.81;46.93;98256.09;5028369;28;20391;-59
2021/08/21 08:07:23;;;;;;;4.72;2.80;;;;;;;28.10;47.07;98260.13;5029483;28;20090;-61
2021/08/21 08:09:49;;;;;;;4.18;2.67;;;;;;;27.13;50.72;98254.41;5028802;28;20414;-60
2021/08/21 08:12:14;;;;;;;4.65;2.63;;;;;;;25.80;53.87;98255.53;5028420;28;20172;-62
2021/08/21 08:14:39;;;;;;;7.18;3.00;;;;;;;26.21;52.59;98259.41;5033511;28;20021;-60
2021/08/21 08:17:05;;;;;;;6.57;3.00;;;;;;;25.41;55.14;98256.66;5033099;28;20063;-60
2021/08/21 08:19:30;;;;;;;6.00;3.03;;;;;;;25.88;54.90;98258.25;5032295;28;20025;-61
2021/08/21 08:21:56;;;;;;;7.10;3.03;;;;;;;28.16;48.96;98251.41;5032896;28;20029;-59
2021/08/21 08:24:23;;;;;;;4.75;3.17;;;;;;;29.95;45.90;98242.78;5032716;28;20029;-62
2021/08/21 08:26:49;;;;;;;4.18;2.67;;;;;;;31.07;44.07;98247.38;5031122;28;20036;-59
2021/08/21 08:29:14;;;;;;;5.85;2.92;;;;;;;30.76;42.76;98244.88;5033030;28;20697;-60
2021/08/21 08:31:39;;;;;;;4.50;2.80;;;;;;;30.12;44.12;98248.84;5034197;28;20425;-60
2021/08/21 08:34:05;;;;;;;4.10;2.83;;;;;;;31.40;42.48;98248.81;5032602;28;20115;-59
2021/08/21 08:36:30;;;;;;;5.07;3.20;;;;;;;29.91;44.65;98257.63;5031123;28;20534;-62
2021/08/21 08:38:55;;;;;;;6.22;3.08;;;;;;;31.37;41.94;98241.09;5033358;28;20325;-61
2021/08/21 08:41:22;;;;;;;6.03;3.00;;;;;;;30.85;42.43;98243.75;5029600;28;20059;-62
2021/08/21 08:43:48;;;;;;;5.82;3.13;;;;;;;33.45;38.21;98245.13;5028273;28;20055;-62
2021/08/21 08:46:17;;;;;;;4.63;3.13;;;;;;;32.60;40.79;98247.22;5029834;28;20021;-59
2021/08/21 08:48:44;;;;;;;6.10;3.20;;;;;;;30.49;43.78;98244.53;5029306;28;20032;-61
2021/08/21 08:51:10;;;;;;;4.38;3.35;;;;;;;33.83;38.40;98246.50;5031608;28;20071;-61
2021/08/21 08:53:36;;;;;;;4.68;3.10;;;;;;;31.97;40.56;98247.94;5031540;28;20689;-61
2021/08/21 08:56:02;;;;;;;6.13;2.90;;;;;;;34.14;38.05;98243.19;5032511;28;20021;-59
2021/08/21 08:58:27;;;;;;;4.93;3.10;;;;;;;33.29;38.60;98242.78;5030659;28;20474;-61
2021/08/21 09:00:53;;;;;;;4.17;2.80;;;;;;;33.87;37.66;98242.34;5028230;28;20716;-59
2021/08/21 09:03:21;;;;;;;8.80;3.05;;;;;;;35.51;35.15;98240.53;5028786;28;20398;-59
2021/08/21 09:05:47;;;;;;;3.60;2.80;;;;;;;33.87;38.53;98242.34;5031107;28;20021;-63
2021/08/21 09:08:21;;;;;;;5.00;3.03;;;;;;;32.85;39.32;98237.63;5030851;28;20039;-60
2021/08/21 09:10:46;;;;;;;7.03;2.90;;;;;;;33.87;38.95;98237.75;5030417;28;20384;-62
2021/08/21 09:13:15;;;;;;;3.47;2.83;;;;;;;34.32;36.40;98235.28;5030626;28;21115;-58
2021/08/21 09:16:00;;;;;;;5.20;3.13;;;;;;;33.17;38.70;98237.97;5031606;28;20025;-59
2021/08/21 09:18:27;;;;;;;5.18;3.22;;;;;;;32.00;40.23;98235.94;5029518;28;20035;-59
2021/08/21 09:20:56;;;;;;;5.68;3.08;;;;;;;32.17;39.99;98233.84;5029280;28;20665;-60
2021/08/21 09:23:29;;;;;;;7.78;3.00;;;;;;;32.93;39.52;98238.47;5029635;28;20064;-59
2021/08/21 09:26:14;;;;;;;4.53;2.97;;;;;;;32.32;38.63;98229.16;5028871;28;20155;-61
2021/08/21 09:28:44;;;;;;;7.22;2.80;;;;;;;34.56;36.11;98224.81;5028936;28;20037;-59
2021/08/21 09:31:11;;;;;;;4.95;3.08;;;;;;;34.73;36.76;98223.34;5030420;28;20025;-60
2021/08/21 09:33:49;;;;;;;5.85;2.95;;;;;;;35.22;35.72;98225.66;5028473;28;20040;-58
2021/08/21 09:36:36;;;;;;;3.85;2.65;;;;;;;33.47;37.25;98226.88;5028437;28;20036;-60
2021/08/21 09:39:08;;;;;;;6.05;2.90;;;;;;;34.62;35.44;98223.16;5032024;28;20060;-60
2021/08/21 09:41:52;;;;;;;4.25;2.88;;;;;;;33.35;39.67;98223.91;5030412;28;20039;-60
2021/08/21 09:44:27;;;;;;;4.50;2.65;;;;;;;33.51;38.91;98225.41;5029523;28;20021;-59
2021/08/21 09:47:11;;;;;;;5.28;3.08;;;;;;;32.13;39.61;98224.44;5029012;28;20050;-59
2021/08/21 09:49:37;;;;;;;4.22;2.60;;;;;;;32.75;34.67;98218.22;5030985;28;20505;-60
2021/08/21 09:52:07;;;;;;;4.38;2.63;;;;;;;34.13;32.19;98215.28;5027874;28;20028;-59
2021/08/21 09:54:33;;;;;;;3.72;2.33;;;;;;;32.25;34.08;98209.38;5028186;28;20437;-60
2021/08/21 09:56:59;;;;;;;3.85;2.47;;;;;;;32.78;34.19;98208.91;5028022;28;20503;-59
2021/08/21 09:59:42;;;;;;;6.70;2.60;;;;;;;33.47;33.96;98209.78;5027581;28;20141;-61
2021/08/21 10:02:11;;;;;;;3.75;2.67;;;;;;;34.97;31.37;98199.28;5026169;28;20029;-59
2021/08/21 10:04:38;;;;;;;6.03;2.88;;;;;;;33.85;32.82;98201.13;5027460;28;20025;-60
2021/08/21 10:07:05;;;;;;;6.90;3.03;;;;;;;33.66;33.68;98208.19;5028871;28;20036;-62
2021/08/21 10:09:33;;;;;;;4.85;2.70;;;;;;;32.96;34.71;98208.38;5031553;28;20452;-62
2021/08/21 10:11:59;;;;;;;4.97;3.33;;;;;;;31.05;36.69;98194.75;5029906;28;20056;-61
2021/08/21 10:14:24;;;;;;;5.90;2.80;;;;;;;31.11;37.76;98204.75;5028761;28;20063;-61
2021/08/21 10:16:50;;;;;;;3.85;2.80;;;;;;;31.42;36.85;98200.94;5027403;28;21043;-59
2021/08/21 10:19:20;;;;;;;5.75;2.97;;;;;;;31.18;37.11;98194.88;5026613;28;20030;-61
2021/08/21 10:21:54;;;;;;;4.18;2.70;;;;;;;31.49;36.11;98189.22;5028727;28;20033;-60
2021/08/21 10:24:42;;;;;;;4.10;2.60;;;;;;;33.15;34.13;98190.59;5030196;28;20027;-61
2021/08/21 10:27:24;;;;;;;4.88;2.55;;;;;;;33.59;32.09;98191.94;5028701;28;20029;-62
2021/08/21 10:30:08;;;;;;;3.92;2.60;;;;;;;34.13;32.09;98190.06;5028295;28;20426;-61
2021/08/21 10:32:39;;;;;;;6.20;2.88;;;;;;;34.04;31.99;98196.75;5030461;28;20028;-59
2021/08/21 10:35:06;;;;;;;3.75;2.70;;;;;;;33.52;33.85;98182.97;5030580;28;20402;-60
2021/08/21 10:37:39;;;;;;;4.22;2.90;;;;;;;32.58;34.68;98189.91;5025909;28;20042;-61
2021/08/21 10:40:27;;;;;;;6.15;2.60;;;;;;;33.98;32.14;98184.88;5029676;28;20029;-62
2021/08/21 10:42:57;;;;;;;3.88;2.85;;;;;;;31.21;35.94;98188.25;5028900;28;20109;-60
2021/08/21 10:45:44;;;;;;;5.10;2.70;;;;;;;32.41;34.36;98183.97;5028149;28;20057;-59
2021/08/21 10:48:14;;;;;;;3.47;2.50;;;;;;;32.37;34.61;98178.13;5027416;28;20552;-59
2021/08/21 10:50:44;;;;;;;5.05;2.63;;;;;;;31.15;36.53;98184.47;5028167;28;20498;-63
2021/08/21 10:53:20;;;;;;;3.95;2.70;;;;;;;32.38;35.09;98174.38;5027662;28;20025;-60
2021/08/21 10:55:45;;;;;;;9.13;2.70;;;;;;;32.26;35.41;98181.38;5026471;28;20029;-61
2021/08/21 10:58:14;;;;;;;5.55;2.72;;;;;;;31.88;35.80;98187.91;5027882;28;20559;-59
2021/08/21 11:00:41;;;;;;;4.00;2.72;;;;;;;32.11;34.73;98188.72;5029079;28;20508;-59
2021/08/21 11:03:12;;;;;;;3.72;2.80;;;;;;;33.21;33.02;98179.81;5027865;28;20056;-59
2021/08/21 11:05:54;;;;;;;;;;;;;;;32.20;35.08;98176.75;5026219;28;20025;-62
2021/08/21 11:08:26;;;;;;;3.80;2.58;;;;;;;30.40;37.87;98181.00;5024976;28;20708;-63
2021/08/21 11:11:10;;;;;;;4.63;2.90;;;;;;;32.37;34.51;98178.13;5027896;28;20060;-59
2021/08/21 11:16:45;;;;;;;5.68;2.90;;;;;;;29.34;40.56;98169.31;5026928;28;20035;-63
2021/08/21 11:19:11;;;;;;;4.95;3.00;;;;;;;29.41;40.66;98171.13;5028966;28;20594;-60
2021/08/21 11:21:38;;;;;;;4.20;2.95;;;;;;;30.11;40.94;98161.13;5028802;28;20112;-59
2021/08/21 11:24:27;;;;;;;6.65;2.80;;;;;;;31.56;37.56;98165.03;5027250;28;20514;-59
2021/08/21 11:27:28;;;;;;;4.97;2.97;;;;;;;32.21;35.79;98170.34;5027348;28;20033;-61
2021/08/21 11:30:39;;;;;;;5.32;2.80;;;;;;;32.49;36.17;98166.78;5028520;28;20480;-59
2021/08/21 11:33:07;;;;;;;3.65;2.80;;;;;;;30.86;38.04;98153.03;5022345;28;20076;-60
2021/08/21 11:35:37;;;;;;;3.97;2.80;;;;;;;30.84;37.25;98158.63;5027325;28;20032;-59
2021/08/21 11:38:05;;;;;;;4.25;2.83;;;;;;;30.27;39.07;98156.59;5026951;28;20097;-61
2021/08/21 11:40:37;;;;;;;4.75;3.03;;;;;;;29.90;40.12;98155.63;5028708;28;20029;-59